sensor_id;sensor_type;location;lat;lon;timestamp;pressure;altitude;pressure_sealevel;temperature;humidity
64844;BME280;51310;52.198;5.422;2024-03-06T00:02:12;101657.47;;;6.32;100.00
64844;BME280;51310;52.198;5.422;2024-03-06T00:04:38;101660.50;;;6.21;100.00
64844;BME280;51310;52.198;5.422;2024-03-06T00:07:04;101664.97;;;6.19;100.00
64844;BME280;51310;52.198;5.422;2024-03-06T00:09:30;101662.25;;;6.21;100.00
64844;BME280;51310;52.198;5.422;2024-03-06T00:11:57;101672.84;;;6.22;100.00
64844;BME280;51310;52.198;5.422;2024-03-06T00:14:23;101674.38;;;6.30;100.00
64844;BME280;51310;52.198;5.422;2024-03-06T00:16:50;101677.81;;;6.33;100.00
64844;BME280;51310;52.198;5.422;2024-03-06T00:19:19;101676.88;;;6.34;100.00
64844;BME280;51310;52.198;5.422;2024-03-06T00:21:49;101685.56;;;6.39;100.00
64844;BME280;51310;52.198;5.422;2024-03-06T00:24:15;101680.34;;;6.36;100.00
64844;BME280;51310;52.198;5.422;2024-03-06T00:26:44;101683.84;;;6.38;100.00
64844;BME280;51310;52.198;5.422;2024-03-06T00:29:11;101688.22;;;6.39;100.00
64844;BME280;51310;52.198;5.422;2024-03-06T00:31:42;101682.03;;;6.39;100.00
64844;BME280;51310;52.198;5.422;2024-03-06T00:34:13;101691.69;;;6.41;100.00
64844;BME280;51310;52.198;5.422;2024-03-06T00:36:45;101683.78;;;6.40;100.00
64844;BME280;51310;52.198;5.422;2024-03-06T00:39:11;101678.72;;;6.32;100.00
64844;BME280;51310;52.198;5.422;2024-03-06T00:41:40;101689.97;;;6.40;100.00
64844;BME280;51310;52.198;5.422;2024-03-06T00:44:06;101686.47;;;6.38;100.00
64844;BME280;51310;52.198;5.422;2024-03-06T00:46:32;101693.53;;;6.39;100.00
64844;BME280;51310;52.198;5.422;2024-03-06T00:48:58;101683.13;;;6.33;100.00
64844;BME280;51310;52.198;5.422;2024-03-06T00:51:24;101693.53;;;6.39;100.00
64844;BME280;51310;52.198;5.422;2024-03-06T00:53:50;101683.13;;;6.33;100.00
64844;BME280;51310;52.198;5.422;2024-03-06T00:56:16;101702.31;;;6.41;100.00
64844;BME280;51310;52.198;5.422;2024-03-06T00:58:42;101697.88;;;6.42;100.00
64844;BME280;51310;52.198;5.422;2024-03-06T01:01:07;101706.69;;;6.44;100.00
64844;BME280;51310;52.198;5.422;2024-03-06T01:03:33;101708.50;;;6.42;100.00
64844;BME280;51310;52.198;5.422;2024-03-06T01:05:59;101704.06;;;6.42;100.00
64844;BME280;51310;52.198;5.422;2024-03-06T01:08:25;101704.09;;;6.41;100.00
64844;BME280;51310;52.198;5.422;2024-03-06T01:10:51;101705.91;;;6.40;100.00
64844;BME280;51310;52.198;5.422;2024-03-06T01:13:21;101700.84;;;6.33;100.00
64844;BME280;51310;52.198;5.422;2024-03-06T01:15:47;101713.19;;;6.34;100.00
64844;BME280;51310;52.198;5.422;2024-03-06T01:18:13;101719.28;;;6.37;100.00
64844;BME280;51310;52.198;5.422;2024-03-06T01:20:39;101714.75;;;6.39;100.00
64844;BME280;51310;52.198;5.422;2024-03-06T01:23:06;101709.44;;;6.39;100.00
64844;BME280;51310;52.198;5.422;2024-03-06T01:25:32;101714.75;;;6.39;100.00
64844;BME280;51310;52.198;5.422;2024-03-06T01:27:58;101711.34;;;6.36;100.00
64844;BME280;51310;52.198;5.422;2024-03-06T01:30:24;101718.31;;;6.40;100.00
64844;BME280;51310;52.198;5.422;2024-03-06T01:32:50;101722.88;;;6.35;100.00
64844;BME280;51310;52.198;5.422;2024-03-06T01:35:16;101720.19;;;6.36;100.00
64844;BME280;51310;52.198;5.422;2024-03-06T01:37:42;101726.47;;;6.34;100.00
64844;BME280;51310;52.198;5.422;2024-03-06T01:40:09;101725.66;;;6.30;100.00
64844;BME280;51310;52.198;5.422;2024-03-06T01:42:35;101716.09;;;6.26;100.00
64844;BME280;51310;52.198;5.422;2024-03-06T01:45:03;101723.94;;;6.29;100.00
64844;BME280;51310;52.198;5.422;2024-03-06T01:47:29;101727.72;;;6.22;100.00
64844;BME280;51310;52.198;5.422;2024-03-06T01:49:55;101733.09;;;6.19;100.00
64844;BME280;51310;52.198;5.422;2024-03-06T01:52:22;101735.03;;;6.14;100.00
64844;BME280;51310;52.198;5.422;2024-03-06T01:54:49;101722.19;;;6.00;100.00
64844;BME280;51310;52.198;5.422;2024-03-06T01:57:17;101732.91;;;5.97;100.00
64844;BME280;51310;52.198;5.422;2024-03-06T01:59:45;101742.84;;;5.87;100.00
64844;BME280;51310;52.198;5.422;2024-03-06T02:02:11;101726.31;;;5.79;100.00
64844;BME280;51310;52.198;5.422;2024-03-06T02:04:38;101721.19;;;5.71;100.00
64844;BME280;51310;52.198;5.422;2024-03-06T02:07:09;101738.19;;;5.66;100.00
64844;BME280;51310;52.198;5.422;2024-03-06T02:09:37;101736.63;;;5.58;100.00
64844;BME280;51310;52.198;5.422;2024-03-06T02:12:05;101739.56;;;5.48;100.00
64844;BME280;51310;52.198;5.422;2024-03-06T02:14:35;101734.41;;;5.41;100.00
64844;BME280;51310;52.198;5.422;2024-03-06T02:17:01;101734.63;;;5.34;100.00
64844;BME280;51310;52.198;5.422;2024-03-06T02:19:41;101740.91;;;5.30;100.00
64844;BME280;51310;52.198;5.422;2024-03-06T02:22:09;101745.50;;;5.23;100.00
64844;BME280;51310;52.198;5.422;2024-03-06T02:24:36;101746.47;;;5.20;100.00
64844;BME280;51310;52.198;5.422;2024-03-06T02:27:04;101737.81;;;5.14;100.00
64844;BME280;51310;52.198;5.422;2024-03-06T02:29:33;101750.97;;;5.17;100.00
64844;BME280;51310;52.198;5.422;2024-03-06T02:31:59;101743.13;;;5.12;100.00
64844;BME280;51310;52.198;5.422;2024-03-06T02:34:28;101742.28;;;5.12;100.00
64844;BME280;51310;52.198;5.422;2024-03-06T02:36:55;101723.16;;;4.99;100.00
64844;BME280;51310;52.198;5.422;2024-03-06T02:39:22;101748.66;;;5.05;100.00
64844;BME280;51310;52.198;5.422;2024-03-06T02:41:48;101745.28;;;4.98;100.00
64844;BME280;51310;52.198;5.422;2024-03-06T02:44:14;101736.63;;;4.91;100.00
64844;BME280;51310;52.198;5.422;2024-03-06T02:46:49;101727.88;;;4.86;100.00
64844;BME280;51310;52.198;5.422;2024-03-06T02:49:16;101748.69;;;5.01;100.00
64844;BME280;51310;52.198;5.422;2024-03-06T02:51:44;101738.94;;;5.04;100.00
64844;BME280;51310;52.198;5.422;2024-03-06T02:54:10;101744.06;;;5.11;100.00
64844;BME280;51310;52.198;5.422;2024-03-06T02:56:36;101750.09;;;5.16;100.00
64844;BME280;51310;52.198;5.422;2024-03-06T02:59:02;101726.41;;;5.10;100.00
64844;BME280;51310;52.198;5.422;2024-03-06T03:01:29;101739.50;;;5.16;100.00
64844;BME280;51310;52.198;5.422;2024-03-06T03:03:56;101730.97;;;5.05;100.00
64844;BME280;51310;52.198;5.422;2024-03-06T03:06:22;101750.16;;;5.13;100.00
64844;BME280;51310;52.198;5.422;2024-03-06T03:08:50;101741.56;;;5.05;100.00
64844;BME280;51310;52.198;5.422;2024-03-06T03:11:15;101749.53;;;5.04;100.00
64844;BME280;51310;52.198;5.422;2024-03-06T03:13:42;101736.63;;;4.90;100.00
64844;BME280;51310;52.198;5.422;2024-03-06T03:16:16;101750.72;;;4.92;100.00
64844;BME280;51310;52.198;5.422;2024-03-06T03:18:46;101753.41;;;4.90;100.00
64844;BME280;51310;52.198;5.422;2024-03-06T03:21:14;101752.53;;;4.90;100.00
64844;BME280;51310;52.198;5.422;2024-03-06T03:23:40;101757.75;;;4.93;100.00
64844;BME280;51310;52.198;5.422;2024-03-06T03:26:08;101758.66;;;4.92;100.00
64844;BME280;51310;52.198;5.422;2024-03-06T03:28:38;101757.75;;;4.93;100.00
64844;BME280;51310;52.198;5.422;2024-03-06T03:31:09;101746.50;;;4.85;100.00
64844;BME280;51310;52.198;5.422;2024-03-06T03:33:39;101753.28;;;4.95;100.00
64844;BME280;51310;52.198;5.422;2024-03-06T03:36:06;101761.16;;;4.98;100.00
64844;BME280;51310;52.198;5.422;2024-03-06T03:38:35;101767.13;;;5.06;100.00
64844;BME280;51310;52.198;5.422;2024-03-06T03:41:11;101769.78;;;5.06;100.00
64844;BME280;51310;52.198;5.422;2024-03-06T03:43:42;101766.25;;;5.07;100.00
64844;BME280;51310;52.198;5.422;2024-03-06T03:46:08;101764.47;;;5.06;100.00
64844;BME280;51310;52.198;5.422;2024-03-06T03:48:35;101774.25;;;5.04;100.00
64844;BME280;51310;52.198;5.422;2024-03-06T03:51:05;101767.38;;;4.97;100.00
64844;BME280;51310;52.198;5.422;2024-03-06T03:53:33;101769.25;;;4.93;100.00
64844;BME280;51310;52.198;5.422;2024-03-06T03:56:00;101771.94;;;4.90;100.00
64844;BME280;51310;52.198;5.422;2024-03-06T03:58:26;101771.91;;;4.92;100.00
64844;BME280;51310;52.198;5.422;2024-03-06T04:00:52;101764.06;;;4.87;100.00
64844;BME280;51310;52.198;5.422;2024-03-06T04:03:19;101774.34;;;5.01;100.00
64844;BME280;51310;52.198;5.422;2024-03-06T04:05:47;101762.91;;;4.99;100.00
64844;BME280;51310;52.198;5.422;2024-03-06T04:08:14;101774.94;;;5.12;100.00
64844;BME280;51310;52.198;5.422;2024-03-06T04:10:42;101760.94;;;5.07;100.00
64844;BME280;51310;52.198;5.422;2024-03-06T04:13:11;101779.13;;;5.21;100.00
64844;BME280;51310;52.198;5.422;2024-03-06T04:15:38;101780.00;;;5.21;100.00
64844;BME280;51310;52.198;5.422;2024-03-06T04:18:04;101765.13;;;5.16;100.00
64844;BME280;51310;52.198;5.422;2024-03-06T04:20:30;101780.91;;;5.20;100.00
64844;BME280;51310;52.198;5.422;2024-03-06T04:22:56;101778.31;;;5.17;100.00
64844;BME280;51310;52.198;5.422;2024-03-06T04:25:22;101775.69;;;5.17;100.00
64844;BME280;51310;52.198;5.422;2024-03-06T04:27:49;101777.59;;;5.12;100.00
64844;BME280;51310;52.198;5.422;2024-03-06T04:30:15;101783.03;;;5.06;100.00
64844;BME280;51310;52.198;5.422;2024-03-06T04:32:41;101787.69;;;4.96;100.00
64844;BME280;51310;52.198;5.422;2024-03-06T04:35:07;101787.00;;;4.88;100.00
64844;BME280;51310;52.198;5.422;2024-03-06T04:37:35;101792.59;;;4.76;100.00
64844;BME280;51310;52.198;5.422;2024-03-06T04:40:04;101786.78;;;4.60;100.00
64844;BME280;51310;52.198;5.422;2024-03-06T04:42:34;101782.75;;;4.44;100.00
64844;BME280;51310;52.198;5.422;2024-03-06T04:45:11;101798.66;;;4.42;100.00
64844;BME280;51310;52.198;5.422;2024-03-06T04:47:40;101796.38;;;4.25;100.00
64844;BME280;51310;52.198;5.422;2024-03-06T04:50:11;101806.09;;;4.23;100.00
64844;BME280;51310;52.198;5.422;2024-03-06T04:52:40;101804.56;;;4.14;100.00
64844;BME280;51310;52.198;5.422;2024-03-06T04:55:07;101817.94;;;4.07;100.00
64844;BME280;51310;52.198;5.422;2024-03-06T04:57:37;101816.38;;;3.96;100.00
64844;BME280;51310;52.198;5.422;2024-03-06T05:00:05;101797.25;;;3.82;100.00
64844;BME280;51310;52.198;5.422;2024-03-06T05:02:32;101818.41;;;3.82;100.00
64844;BME280;51310;52.198;5.422;2024-03-06T05:05:00;101823.84;;;3.74;100.00
64844;BME280;51310;52.198;5.422;2024-03-06T05:07:29;101820.44;;;3.68;100.00
64844;BME280;51310;52.198;5.422;2024-03-06T05:09:56;101804.81;;;3.55;100.00
64844;BME280;51310;52.198;5.422;2024-03-06T05:12:24;101826.69;;;3.64;100.00
64844;BME280;51310;52.198;5.422;2024-03-06T05:14:52;101796.19;;;3.46;100.00
64844;BME280;51310;52.198;5.422;2024-03-06T05:17:19;101829.56;;;3.51;100.00
64844;BME280;51310;52.198;5.422;2024-03-06T05:19:47;101830.44;;;3.52;100.00
64844;BME280;51310;52.198;5.422;2024-03-06T05:22:15;101838.44;;;3.47;100.00
64844;BME280;51310;52.198;5.422;2024-03-06T05:24:45;101822.91;;;3.29;100.00
64844;BME280;51310;52.198;5.422;2024-03-06T05:27:11;101826.53;;;3.22;100.00
64844;BME280;51310;52.198;5.422;2024-03-06T05:29:43;101825.75;;;3.17;100.00
64844;BME280;51310;52.198;5.422;2024-03-06T05:32:09;101840.66;;;3.21;100.00
64844;BME280;51310;52.198;5.422;2024-03-06T05:34:36;101846.00;;;3.18;100.00
64844;BME280;51310;52.198;5.422;2024-03-06T05:37:01;101848.72;;;3.11;100.00
64844;BME280;51310;52.198;5.422;2024-03-06T05:39:30;101849.56;;;3.13;100.00
64844;BME280;51310;52.198;5.422;2024-03-06T05:42:01;101855.75;;;3.12;100.00
64844;BME280;51310;52.198;5.422;2024-03-06T05:44:31;101856.75;;;3.05;100.00
64844;BME280;51310;52.198;5.422;2024-03-06T05:47:02;101863.00;;;3.00;100.00
64844;BME280;51310;52.198;5.422;2024-03-06T05:49:29;101863.94;;;2.94;100.00
64844;BME280;51310;52.198;5.422;2024-03-06T05:51:55;101875.38;;;2.95;100.00
64844;BME280;51310;52.198;5.422;2024-03-06T05:54:22;101870.94;;;3.00;100.00
64844;BME280;51310;52.198;5.422;2024-03-06T05:56:49;101848.16;;;2.91;100.00
64844;BME280;51310;52.198;5.422;2024-03-06T05:59:19;101869.97;;;3.04;100.00
64844;BME280;51310;52.198;5.422;2024-03-06T06:01:46;101882.38;;;2.99;100.00
64844;BME280;51310;52.198;5.422;2024-03-06T06:04:13;101883.28;;;2.96;100.00
64844;BME280;51310;52.198;5.422;2024-03-06T06:06:39;101883.34;;;2.93;100.00
64844;BME280;51310;52.198;5.422;2024-03-06T06:09:06;101880.72;;;2.91;100.00
64844;BME280;51310;52.198;5.422;2024-03-06T06:11:33;101882.59;;;2.83;100.00
64844;BME280;51310;52.198;5.422;2024-03-06T06:13:59;101891.22;;;2.95;100.00
64844;BME280;51310;52.198;5.422;2024-03-06T06:16:25;101899.06;;;3.01;100.00
64844;BME280;51310;52.198;5.422;2024-03-06T06:18:51;101913.13;;;3.01;100.00
64844;BME280;51310;52.198;5.422;2024-03-06T06:21:18;101916.72;;;2.97;100.00
64844;BME280;51310;52.198;5.422;2024-03-06T06:23:44;101898.41;;;2.86;100.00
64844;BME280;51310;52.198;5.422;2024-03-06T06:26:10;101923.75;;;2.98;100.00
64844;BME280;51310;52.198;5.422;2024-03-06T06:28:37;101902.63;;;2.97;100.00
64844;BME280;51310;52.198;5.422;2024-03-06T06:31:04;101907.91;;;2.97;100.00
64844;BME280;51310;52.198;5.422;2024-03-06T06:33:30;101930.69;;;3.05;100.00
64844;BME280;51310;52.198;5.422;2024-03-06T06:35:56;101941.19;;;3.08;100.00
64844;BME280;51310;52.198;5.422;2024-03-06T06:38:22;101936.03;;;3.02;100.00
64844;BME280;51310;52.198;5.422;2024-03-06T06:40:48;101926.41;;;2.98;100.00
64844;BME280;51310;52.198;5.422;2024-03-06T06:43:14;101944.75;;;3.06;100.00
64844;BME280;51310;52.198;5.422;2024-03-06T06:45:41;101941.31;;;3.02;100.00
64844;BME280;51310;52.198;5.422;2024-03-06T06:48:07;101942.19;;;3.03;100.00
64844;BME280;51310;52.198;5.422;2024-03-06T06:50:35;101947.44;;;3.04;100.00
64844;BME280;51310;52.198;5.422;2024-03-06T06:53:01;101950.09;;;3.01;100.00
64844;BME280;51310;52.198;5.422;2024-03-06T06:55:27;101955.31;;;3.07;100.00
64844;BME280;51310;52.198;5.422;2024-03-06T06:57:53;101951.03;;;2.99;100.00
64844;BME280;51310;52.198;5.422;2024-03-06T07:00:20;101970.25;;;3.08;100.00
64844;BME280;51310;52.198;5.422;2024-03-06T07:02:48;101956.31;;;2.99;100.00
64844;BME280;51310;52.198;5.422;2024-03-06T07:05:15;101979.03;;;3.10;100.00
64844;BME280;51310;52.198;5.422;2024-03-06T07:07:41;101969.38;;;3.09;100.00
64844;BME280;51310;52.198;5.422;2024-03-06T07:10:08;101978.09;;;3.15;100.00
64844;BME280;51310;52.198;5.422;2024-03-06T07:12:35;101985.16;;;3.16;100.00
64844;BME280;51310;52.198;5.422;2024-03-06T07:15:04;101964.16;;;3.06;100.00
64844;BME280;51310;52.198;5.422;2024-03-06T07:17:30;101990.22;;;3.29;100.00
64844;BME280;51310;52.198;5.422;2024-03-06T07:19:56;101995.47;;;3.31;100.00
64844;BME280;51310;52.198;5.422;2024-03-06T07:22:22;101993.69;;;3.33;100.00
64844;BME280;51310;52.198;5.422;2024-03-06T07:24:48;101984.09;;;3.29;100.00
64844;BME280;51310;52.198;5.422;2024-03-06T07:27:14;102006.81;;;3.39;100.00
64844;BME280;51310;52.198;5.422;2024-03-06T07:29:40;102006.75;;;3.44;100.00
64844;BME280;51310;52.198;5.422;2024-03-06T07:32:06;101999.66;;;3.47;100.00
64844;BME280;51310;52.198;5.422;2024-03-06T07:34:33;101983.88;;;3.43;100.00
64844;BME280;51310;52.198;5.422;2024-03-06T07:36:59;102016.31;;;3.52;100.00
64844;BME280;51310;52.198;5.422;2024-03-06T07:39:25;102011.81;;;3.61;100.00
64844;BME280;51310;52.198;5.422;2024-03-06T07:41:52;102009.00;;;3.70;100.00
64844;BME280;51310;52.198;5.422;2024-03-06T07:44:18;102018.59;;;3.77;100.00
64844;BME280;51310;52.198;5.422;2024-03-06T07:46:45;102024.63;;;3.85;100.00
64844;BME280;51310;52.198;5.422;2024-03-06T07:49:11;102026.28;;;3.92;100.00
64844;BME280;51310;52.198;5.422;2024-03-06T07:51:38;102026.22;;;3.95;100.00
64844;BME280;51310;52.198;5.422;2024-03-06T07:54:06;102025.28;;;4.00;100.00
64844;BME280;51310;52.198;5.422;2024-03-06T07:56:32;102033.16;;;4.03;100.00
64844;BME280;51310;52.198;5.422;2024-03-06T07:59:00;102029.53;;;4.10;100.00
64844;BME280;51310;52.198;5.422;2024-03-06T08:01:26;102019.91;;;4.04;100.00
64844;BME280;51310;52.198;5.422;2024-03-06T08:03:54;102029.41;;;4.16;100.00
64844;BME280;51310;52.198;5.422;2024-03-06T08:06:20;102026.81;;;4.14;100.00
64844;BME280;51310;52.198;5.422;2024-03-06T08:08:49;102034.50;;;4.27;100.00
64844;BME280;51310;52.198;5.422;2024-03-06T08:11:15;102031.00;;;4.26;100.00
64844;BME280;51310;52.198;5.422;2024-03-06T08:13:41;102038.09;;;4.24;100.00
64844;BME280;51310;52.198;5.422;2024-03-06T08:16:07;102034.44;;;4.31;100.00
64844;BME280;51310;52.198;5.422;2024-03-06T08:18:35;102055.47;;;4.39;100.00
64844;BME280;51310;52.198;5.422;2024-03-06T08:21:02;102036.03;;;4.40;100.00
64844;BME280;51310;52.198;5.422;2024-03-06T08:23:32;102056.09;;;4.53;100.00
64844;BME280;51310;52.198;5.422;2024-03-06T08:25:58;102057.91;;;4.51;100.00
64844;BME280;51310;52.198;5.422;2024-03-06T08:28:25;102059.31;;;4.69;100.00
64844;BME280;51310;52.198;5.422;2024-03-06T08:30:52;102055.72;;;4.73;100.00
64844;BME280;51310;52.198;5.422;2024-03-06T08:33:19;102061.50;;;4.94;100.00
64844;BME280;51310;52.198;5.422;2024-03-06T08:35:46;102050.13;;;4.89;100.00
64844;BME280;51310;52.198;5.422;2024-03-06T08:38:12;102072.56;;;5.14;100.00
64844;BME280;51310;52.198;5.422;2024-03-06T08:40:38;102076.16;;;5.12;100.00
64844;BME280;51310;52.198;5.422;2024-03-06T08:43:04;102076.16;;;5.12;100.00
64844;BME280;51310;52.198;5.422;2024-03-06T08:45:30;102061.25;;;5.06;100.00
64844;BME280;51310;52.198;5.422;2024-03-06T08:47:56;102085.75;;;5.17;100.00
64844;BME280;51310;52.198;5.422;2024-03-06T08:50:22;102086.69;;;5.13;100.00
64844;BME280;51310;52.198;5.422;2024-03-06T08:52:48;102092.28;;;4.99;100.00
64844;BME280;51310;52.198;5.422;2024-03-06T08:55:14;102097.50;;;5.04;100.00
64844;BME280;51310;52.198;5.422;2024-03-06T08:57:40;102087.69;;;5.09;100.00
64844;BME280;51310;52.198;5.422;2024-03-06T09:00:07;102111.94;;;5.33;100.00
64844;BME280;51310;52.198;5.422;2024-03-06T09:02:39;102095.97;;;5.36;100.00
64844;BME280;51310;52.198;5.422;2024-03-06T09:05:07;102108.31;;;5.38;100.00
64844;BME280;51310;52.198;5.422;2024-03-06T09:07:36;102102.72;;;5.51;100.00
64844;BME280;51310;52.198;5.422;2024-03-06T09:10:09;102115.75;;;5.61;100.00
64844;BME280;51310;52.198;5.422;2024-03-06T09:12:36;102115.78;;;5.60;100.00
64844;BME280;51310;52.198;5.422;2024-03-06T09:15:03;102120.00;;;5.69;100.00
64844;BME280;51310;52.198;5.422;2024-03-06T09:17:30;102132.09;;;5.82;100.00
64844;BME280;51310;52.198;5.422;2024-03-06T09:19:56;102133.69;;;5.89;100.00
64844;BME280;51310;52.198;5.422;2024-03-06T09:22:22;102138.25;;;5.82;100.00
64844;BME280;51310;52.198;5.422;2024-03-06T09:24:48;102136.56;;;5.80;100.00
64844;BME280;51310;52.198;5.422;2024-03-06T09:27:17;102118.81;;;5.83;100.00
64844;BME280;51310;52.198;5.422;2024-03-06T09:29:43;102138.47;;;6.14;100.00
64844;BME280;51310;52.198;5.422;2024-03-06T09:32:09;102137.75;;;6.05;100.00
64844;BME280;51310;52.198;5.422;2024-03-06T09:34:38;102150.53;;;6.29;100.00
64844;BME280;51310;52.198;5.422;2024-03-06T09:37:04;102153.50;;;6.51;100.00
64844;BME280;51310;52.198;5.422;2024-03-06T09:39:30;102163.25;;;6.50;100.00
64844;BME280;51310;52.198;5.422;2024-03-06T09:41:56;102156.00;;;6.57;100.00
64844;BME280;51310;52.198;5.422;2024-03-06T09:44:22;102155.13;;;6.58;100.00
64844;BME280;51310;52.198;5.422;2024-03-06T09:46:49;102161.88;;;6.70;100.00
64844;BME280;51310;52.198;5.422;2024-03-06T09:49:19;102162.56;;;6.78;100.00
64844;BME280;51310;52.198;5.422;2024-03-06T09:51:47;102158.97;;;6.80;100.00
64844;BME280;51310;52.198;5.422;2024-03-06T09:54:19;102171.16;;;6.87;100.00
64844;BME280;51310;52.198;5.422;2024-03-06T09:56:47;102176.13;;;7.01;100.00
64844;BME280;51310;52.198;5.422;2024-03-06T09:59:14;102167.31;;;6.99;100.00
64844;BME280;51310;52.198;5.422;2024-03-06T10:01:56;102171.47;;;7.09;100.00
64844;BME280;51310;52.198;5.422;2024-03-06T10:04:25;102169.16;;;7.28;100.00
64844;BME280;51310;52.198;5.422;2024-03-06T10:06:59;102179.53;;;7.38;100.00
64844;BME280;51310;52.198;5.422;2024-03-06T10:09:27;102171.09;;;7.55;100.00
64844;BME280;51310;52.198;5.422;2024-03-06T10:11:54;102187.75;;;7.61;100.00
64844;BME280;51310;52.198;5.422;2024-03-06T10:14:23;102179.44;;;7.72;100.00
64844;BME280;51310;52.198;5.422;2024-03-06T10:17:00;102184.84;;;7.69;100.00
64844;BME280;51310;52.198;5.422;2024-03-06T10:19:29;102170.66;;;7.39;100.00
64844;BME280;51310;52.198;5.422;2024-03-06T10:21:56;102168.47;;;7.53;100.00
64844;BME280;51310;52.198;5.422;2024-03-06T10:24:27;102186.53;;;7.73;100.00
64844;BME280;51310;52.198;5.422;2024-03-06T10:26:58;102180.91;;;7.82;100.00
64844;BME280;51310;52.198;5.422;2024-03-06T10:29:29;102185.66;;;7.72;100.00
64844;BME280;51310;52.198;5.422;2024-03-06T10:31:58;102176.09;;;7.65;100.00
64844;BME280;51310;52.198;5.422;2024-03-06T10:34:26;102166.38;;;7.64;100.00
64844;BME280;51310;52.198;5.422;2024-03-06T10:37:03;102190.44;;;7.89;100.00
64844;BME280;51310;52.198;5.422;2024-03-06T10:39:33;102186.94;;;7.89;100.00
64844;BME280;51310;52.198;5.422;2024-03-06T10:42:03;102177.75;;;7.69;100.00
64844;BME280;51310;52.198;5.422;2024-03-06T10:44:34;102183.50;;;7.54;100.00
64844;BME280;51310;52.198;5.422;2024-03-06T10:47:08;102192.03;;;7.65;100.00
64844;BME280;51310;52.198;5.422;2024-03-06T10:49:38;102199.78;;;7.75;100.00
64844;BME280;51310;52.198;5.422;2024-03-06T10:52:09;102201.13;;;7.88;100.00
64844;BME280;51310;52.198;5.422;2024-03-06T10:54:35;102197.72;;;7.84;100.00
64844;BME280;51310;52.198;5.422;2024-03-06T10:57:04;102183.44;;;7.87;100.00
64844;BME280;51310;52.198;5.422;2024-03-06T10:59:31;102202.69;;;8.25;100.00
64844;BME280;51310;52.198;5.422;2024-03-06T11:01:59;102196.44;;;8.26;100.00
64844;BME280;51310;52.198;5.422;2024-03-06T11:04:31;102190.31;;;7.94;100.00
64844;BME280;51310;52.198;5.422;2024-03-06T11:07:03;102195.47;;;8.00;100.00
64844;BME280;51310;52.198;5.422;2024-03-06T11:09:34;102200.31;;;8.16;100.00
64844;BME280;51310;52.198;5.422;2024-03-06T11:12:02;102200.69;;;8.03;100.00
64844;BME280;51310;52.198;5.422;2024-03-06T11:14:31;102189.34;;;7.97;100.00
64844;BME280;51310;52.198;5.422;2024-03-06T11:17:09;102195.34;;;8.03;100.00
64844;BME280;51310;52.198;5.422;2024-03-06T11:28:37;102207.66;;;8.07;100.00
64844;BME280;51310;52.198;5.422;2024-03-06T11:31:10;102203.06;;;8.12;100.00
64844;BME280;51310;52.198;5.422;2024-03-06T11:33:44;102208.19;;;8.19;100.00
64844;BME280;51310;52.198;5.422;2024-03-06T11:36:25;102206.91;;;8.32;100.00
64844;BME280;51310;52.198;5.422;2024-03-06T11:39:03;102210.50;;;8.31;100.00
64844;BME280;51310;52.198;5.422;2024-03-06T11:44:15;102219.78;;;8.47;100.00
64844;BME280;51310;52.198;5.422;2024-03-06T11:47:07;102218.16;;;8.42;100.00
64844;BME280;51310;52.198;5.422;2024-03-06T11:49:35;102213.31;;;8.54;100.00
64844;BME280;51310;52.198;5.422;2024-03-06T11:52:09;102218.44;;;8.61;100.00
64844;BME280;51310;52.198;5.422;2024-03-06T11:54:35;102208.31;;;8.72;100.00
64844;BME280;51310;52.198;5.422;2024-03-06T11:57:06;102223.63;;;8.92;100.00
64844;BME280;51310;52.198;5.422;2024-03-06T11:59:35;102207.56;;;8.93;100.00
64844;BME280;51310;52.198;5.422;2024-03-06T12:02:05;102220.50;;;9.06;100.00
64844;BME280;51310;52.198;5.422;2024-03-06T12:04:34;102215.81;;;9.12;100.00
64844;BME280;51310;52.198;5.422;2024-03-06T12:07:04;102212.66;;;9.26;100.00
64844;BME280;51310;52.198;5.422;2024-03-06T12:09:33;102224.03;;;9.31;100.00
64844;BME280;51310;52.198;5.422;2024-03-06T12:12:01;102212.16;;;9.40;100.00
64844;BME280;51310;52.198;5.422;2024-03-06T12:14:27;102220.16;;;9.40;100.00
64844;BME280;51310;52.198;5.422;2024-03-06T12:17:01;102204.94;;;9.44;100.00
64844;BME280;51310;52.198;5.422;2024-03-06T12:19:36;102229.00;;;9.42;100.00
64844;BME280;51310;52.198;5.422;2024-03-06T12:22:03;102209.50;;;9.40;100.00
64844;BME280;51310;52.198;5.422;2024-03-06T12:24:33;102221.47;;;9.53;100.00
64844;BME280;51310;52.198;5.422;2024-03-06T12:27:02;102211.13;;;9.44;100.00
64844;BME280;51310;52.198;5.422;2024-03-06T12:29:31;102228.22;;;9.64;100.00
64844;BME280;51310;52.198;5.422;2024-03-06T12:31:59;102224.25;;;9.74;100.00
64844;BME280;51310;52.198;5.422;2024-03-06T12:34:27;102222.06;;;9.85;100.00
64844;BME280;51310;52.198;5.422;2024-03-06T12:36:53;102226.81;;;10.00;100.00
64844;BME280;51310;52.198;5.422;2024-03-06T12:39:19;102223.34;;;9.98;100.00
64844;BME280;51310;52.198;5.422;2024-03-06T12:41:52;102216.09;;;10.02;100.00
64844;BME280;51310;52.198;5.422;2024-03-06T12:44:20;102195.63;;;10.01;100.00
64844;BME280;51310;52.198;5.422;2024-03-06T12:46:46;102219.66;;;10.25;100.00
64844;BME280;51310;52.198;5.422;2024-03-06T12:49:12;102205.59;;;10.19;100.00
64844;BME280;51310;52.198;5.422;2024-03-06T12:51:38;102214.78;;;10.36;100.00
64844;BME280;51310;52.198;5.422;2024-03-06T12:54:03;102205.78;;;10.38;100.00
64844;BME280;51310;52.198;5.422;2024-03-06T12:56:29;102209.59;;;10.53;100.00
64844;BME280;51310;52.198;5.422;2024-03-06T12:58:55;102212.47;;;10.71;100.00
64844;BME280;51310;52.198;5.422;2024-03-06T13:01:21;102202.53;;;10.74;100.00
64844;BME280;51310;52.198;5.422;2024-03-06T13:03:47;102195.66;;;10.67;100.00
64844;BME280;51310;52.198;5.422;2024-03-06T13:06:14;102204.25;;;10.75;100.00